createdAt,value
2018-05-24T00:00:57.353Z,2.07
2018-05-24T00:02:58.280Z,2.60
2018-05-24T00:04:59.968Z,2.60
2018-05-24T00:07:00.887Z,2.77
2018-05-24T00:09:02.593Z,2.50
2018-05-24T00:11:03.512Z,2.60
2018-05-24T00:13:05.184Z,2.30
2018-05-24T00:15:06.117Z,2.33
2018-05-24T00:17:07.034Z,3.10
2018-05-24T00:19:07.970Z,2.50
2018-05-24T00:21:08.924Z,2.30
2018-05-24T00:23:09.864Z,3.20
2018-05-24T00:25:10.791Z,2.63
2018-05-24T00:27:11.710Z,2.80
2018-05-24T00:29:12.648Z,2.63
2018-05-24T00:31:13.575Z,2.60
2018-05-24T00:33:14.515Z,2.40
2018-05-24T00:35:16.170Z,2.53
2018-05-24T00:37:17.848Z,2.73
2018-05-24T00:39:19.529Z,2.33
2018-05-24T00:41:20.452Z,2.70
2018-05-24T00:43:22.133Z,2.60
2018-05-24T00:45:23.072Z,2.00
2018-05-24T00:47:23.998Z,2.17
2018-05-24T00:49:25.671Z,2.47
2018-05-24T00:51:27.334Z,2.70
2018-05-24T00:53:28.268Z,2.67
2018-05-24T00:55:40.117Z,3.00
2018-05-24T00:57:41.040Z,2.50
2018-05-24T00:59:41.986Z,2.70
2018-05-24T01:01:42.933Z,2.87
2018-05-24T01:03:43.877Z,3.03
2018-05-24T01:05:44.801Z,2.93
2018-05-24T01:07:45.742Z,2.60
2018-05-24T01:09:47.402Z,2.90
2018-05-24T01:11:49.057Z,3.00
2018-05-24T01:13:49.995Z,3.50
2018-05-24T01:15:51.019Z,2.70
2018-05-24T01:17:51.861Z,2.63
2018-05-24T01:19:52.792Z,2.70
2018-05-24T01:21:53.716Z,2.50
2018-05-24T01:23:54.661Z,3.00
2018-05-24T01:25:55.589Z,2.93
2018-05-24T01:27:56.517Z,2.43
2018-05-24T01:29:57.452Z,2.63
2018-05-24T01:31:58.388Z,2.50
2018-05-24T01:33:59.320Z,2.13
2018-05-24T01:36:00.249Z,2.80
2018-05-24T01:38:01.199Z,3.10
2018-05-24T01:40:02.145Z,2.40
2018-05-24T01:42:03.064Z,2.90
2018-05-24T01:44:03.993Z,2.23
2018-05-24T01:46:05.651Z,2.57
2018-05-24T01:48:07.305Z,2.77
2018-05-24T01:50:08.234Z,2.47
2018-05-24T01:52:09.165Z,2.80
2018-05-24T01:54:10.128Z,2.80
2018-05-24T01:56:11.085Z,2.77
2018-05-24T01:58:12.008Z,2.93
2018-05-24T02:00:12.940Z,2.70
2018-05-24T02:02:13.864Z,3.00
2018-05-24T02:04:14.800Z,2.97
2018-05-24T02:06:15.728Z,3.00
2018-05-24T02:08:17.388Z,3.03
2018-05-24T02:10:19.065Z,2.67
2018-05-24T02:12:20.006Z,2.70
2018-05-24T02:14:20.940Z,3.30
2018-05-24T02:16:22.601Z,2.80
2018-05-24T02:18:24.252Z,2.90
2018-05-24T02:20:25.179Z,3.03
2018-05-24T02:22:26.097Z,2.80
2018-05-24T02:24:27.034Z,2.80
2018-05-24T02:26:28.046Z,3.00
2018-05-24T02:28:29.717Z,2.90
2018-05-24T02:30:31.393Z,3.00
2018-05-24T02:32:32.326Z,3.13
2018-05-24T02:34:33.996Z,2.93
2018-05-24T02:36:34.925Z,2.50
2018-05-24T02:38:36.602Z,2.93
2018-05-24T02:40:37.553Z,3.07
2018-05-24T02:42:38.493Z,2.33
2018-05-24T02:44:39.425Z,2.87
2018-05-24T02:46:41.111Z,2.80
2018-05-24T02:48:42.030Z,2.80
2018-05-24T02:50:43.717Z,2.67
2018-05-24T02:52:44.942Z,3.00
2018-05-24T02:54:45.896Z,2.93
2018-05-24T02:56:47.562Z,2.73
2018-05-24T02:58:48.549Z,3.30
2018-05-24T03:00:49.541Z,3.20
2018-05-24T03:02:51.271Z,3.30
2018-05-24T03:04:52.201Z,3.07
2018-05-24T03:06:53.942Z,2.80
2018-05-24T03:08:54.884Z,3.37
2018-05-24T03:10:55.869Z,3.03
2018-05-24T03:12:56.776Z,3.00
2018-05-24T03:14:57.705Z,2.87
2018-05-24T03:16:58.622Z,2.97
2018-05-24T03:18:59.550Z,3.40
2018-05-24T03:21:00.480Z,3.20
2018-05-24T03:23:02.147Z,3.27
2018-05-24T03:25:03.063Z,3.63
2018-05-24T03:27:04.001Z,3.50
2018-05-24T03:29:05.673Z,3.73
2018-05-24T03:31:06.600Z,3.23
2018-05-24T03:33:08.269Z,3.07
2018-05-24T03:35:09.977Z,3.27
2018-05-24T03:37:10.889Z,3.80
2018-05-24T03:39:11.804Z,3.80
2018-05-24T03:41:12.733Z,2.90
2018-05-24T03:43:13.656Z,3.40
2018-05-24T03:45:14.590Z,3.50
2018-05-24T03:47:15.520Z,3.40
2018-05-24T03:49:16.445Z,3.40
2018-05-24T03:51:18.113Z,3.87
2018-05-24T03:53:19.042Z,3.30
2018-05-24T03:55:19.981Z,3.40
2018-05-24T03:57:20.904Z,4.20
2018-05-24T04:02:21.769Z,3.20
2018-05-24T04:04:35.154Z,3.23
2018-05-24T04:06:36.115Z,3.70
2018-05-24T04:08:37.052Z,3.70
2018-05-24T04:10:38.749Z,4.00
2018-05-24T04:12:39.687Z,3.77
2018-05-24T04:14:40.640Z,4.03
2018-05-24T04:16:41.581Z,4.13
2018-05-24T04:18:42.519Z,4.43
2018-05-24T04:20:43.488Z,4.50
2018-05-24T04:22:44.445Z,3.50
2018-05-24T04:24:45.368Z,3.50
2018-05-24T04:26:46.323Z,3.70
2018-05-24T04:28:47.257Z,4.20
2018-05-24T04:30:48.202Z,4.50
2018-05-24T04:32:49.169Z,3.83
2018-05-24T04:34:50.110Z,3.63
2018-05-24T04:36:51.068Z,4.40
2018-05-24T04:38:51.988Z,4.80
2018-05-24T04:40:52.921Z,3.80
2018-05-24T04:42:53.861Z,4.67
2018-05-24T04:44:54.800Z,3.77
2018-05-24T04:46:56.738Z,4.40
2018-05-24T04:48:57.675Z,3.80
2018-05-24T04:50:58.604Z,4.10
2018-05-24T04:52:59.537Z,4.20
2018-05-24T04:55:00.522Z,4.03
2018-05-24T04:57:01.465Z,3.67
2018-05-24T04:59:02.406Z,3.83
2018-05-24T05:01:03.341Z,4.10
2018-05-24T05:03:04.284Z,4.90
2018-05-24T05:05:05.221Z,4.37
2018-05-24T05:07:06.197Z,4.27
2018-05-24T05:09:07.139Z,4.90
2018-05-24T05:11:08.091Z,4.63
2018-05-24T05:13:09.169Z,4.90
2018-05-24T05:15:10.143Z,4.80
2018-05-24T05:17:11.100Z,4.87
2018-05-24T05:19:12.044Z,4.40
2018-05-24T05:21:12.993Z,4.20
2018-05-24T05:23:13.956Z,4.50
2018-05-24T05:25:14.962Z,4.90
2018-05-24T05:27:15.849Z,4.60
2018-05-24T05:29:16.784Z,5.50
2018-05-24T05:31:17.734Z,5.47
2018-05-24T05:33:18.691Z,4.33
2018-05-24T05:35:19.613Z,6.10
2018-05-24T05:37:20.544Z,6.00
2018-05-24T05:39:21.464Z,5.10
2018-05-24T05:41:22.409Z,4.77
2018-05-24T05:43:23.368Z,5.10
2018-05-24T05:45:24.289Z,5.67
2018-05-24T05:47:25.234Z,4.67
2018-05-24T05:49:26.905Z,5.17
2018-05-24T05:51:27.826Z,5.20
2018-05-24T05:53:29.490Z,5.20
2018-05-24T05:55:31.158Z,5.20
2018-05-24T05:57:32.840Z,5.10
2018-05-24T05:59:33.776Z,5.10
2018-05-24T06:01:35.487Z,4.50
2018-05-24T06:03:36.394Z,6.20
2018-05-24T06:05:37.304Z,4.93
2018-05-24T06:07:38.244Z,4.93
2018-05-24T06:09:39.206Z,5.47
2018-05-24T06:11:40.136Z,4.67
2018-05-24T06:13:41.069Z,4.20
2018-05-24T06:15:42.021Z,5.23
2018-05-24T06:17:42.989Z,6.27
2018-05-24T06:19:44.652Z,6.10
2018-05-24T06:21:46.328Z,5.50
2018-05-24T06:23:47.989Z,5.10
2018-05-24T06:25:48.912Z,6.03
2018-05-24T06:27:49.861Z,4.93
2018-05-24T06:29:51.540Z,5.63
2018-05-24T06:31:52.473Z,5.50
2018-05-24T06:33:53.407Z,5.80
2018-05-24T06:35:54.351Z,5.63
2018-05-24T06:37:55.280Z,5.50
2018-05-24T06:39:56.216Z,5.60
2018-05-24T06:41:57.166Z,5.70
2018-05-24T06:43:58.096Z,6.07
2018-05-24T06:45:59.026Z,6.40
2018-05-24T06:47:59.961Z,5.97
2018-05-24T06:50:00.957Z,6.17
2018-05-24T06:52:01.896Z,6.43
2018-05-24T06:54:02.848Z,5.90
2018-05-24T06:56:03.824Z,5.37
2018-05-24T06:58:05.513Z,6.37
2018-05-24T07:00:06.456Z,6.43
2018-05-24T07:02:07.421Z,5.30
2018-05-24T07:04:08.349Z,5.37
2018-05-24T07:06:09.290Z,5.60
2018-05-24T07:08:10.243Z,5.13
2018-05-24T07:10:11.193Z,5.77
2018-05-24T07:12:12.127Z,6.23
2018-05-24T07:14:13.077Z,5.70
2018-05-24T07:16:14.008Z,5.67
2018-05-24T07:18:15.684Z,5.20
2018-05-24T07:20:16.617Z,5.50
2018-05-24T07:22:18.292Z,5.13
2018-05-24T07:24:19.222Z,5.70
2018-05-24T07:26:20.920Z,5.87
2018-05-24T07:28:21.861Z,5.57
2018-05-24T07:30:22.788Z,4.97
2018-05-24T07:32:23.717Z,5.73
2018-05-24T07:34:25.401Z,5.60
2018-05-24T07:36:27.109Z,4.80
2018-05-24T07:38:28.046Z,4.80
2018-05-24T07:40:29.009Z,5.00
2018-05-24T07:42:29.944Z,5.47
2018-05-24T07:44:30.904Z,5.37
2018-05-24T07:46:31.830Z,5.50
2018-05-24T07:48:32.788Z,5.53
2018-05-24T07:50:33.741Z,5.20
2018-05-24T07:52:35.677Z,5.30
2018-05-24T07:54:36.613Z,6.60
2018-05-24T07:56:37.540Z,5.47
2018-05-24T07:58:38.524Z,4.80
2018-05-24T08:00:39.465Z,5.53
2018-05-24T08:02:40.396Z,4.80
2018-05-24T08:04:41.349Z,5.33
2018-05-24T08:06:42.328Z,5.20
2018-05-24T08:08:43.300Z,5.10
2018-05-24T08:10:44.214Z,4.90
2018-05-24T08:12:45.140Z,5.03
2018-05-24T08:14:46.077Z,4.20
2018-05-24T08:16:47.005Z,5.00
2018-05-24T08:18:47.940Z,5.03
2018-05-24T08:20:48.878Z,4.50
2018-05-24T08:22:50.550Z,5.20
2018-05-24T08:24:51.484Z,4.97
2018-05-24T08:26:52.418Z,4.77
2018-05-24T08:28:53.365Z,4.70
2018-05-24T08:30:55.104Z,5.33
2018-05-24T08:32:56.059Z,5.43
2018-05-24T08:34:56.997Z,4.30
2018-05-24T08:36:58.345Z,5.00
2018-05-24T08:38:59.338Z,4.80
2018-05-24T08:41:00.400Z,5.03
2018-05-24T08:43:01.286Z,4.90
2018-05-24T08:45:02.317Z,5.00
2018-05-24T08:47:03.349Z,4.60
2018-05-24T08:49:04.341Z,4.50
2018-05-24T08:51:05.338Z,4.50
2018-05-24T08:53:06.327Z,4.83
2018-05-24T08:55:07.307Z,4.27
2018-05-24T08:57:08.270Z,4.40
2018-05-24T08:59:09.216Z,4.87
2018-05-24T09:01:10.184Z,4.43
2018-05-24T09:03:11.163Z,4.17
2018-05-24T09:05:12.217Z,3.90
2018-05-24T09:07:13.187Z,4.40
2018-05-24T09:09:14.188Z,4.47
2018-05-24T09:11:15.641Z,4.30
2018-05-24T09:13:16.610Z,4.03
2018-05-24T09:15:17.745Z,3.53
2018-05-24T09:17:19.463Z,4.00
2018-05-24T09:19:20.421Z,5.20
2018-05-24T09:21:21.361Z,4.40
2018-05-24T09:23:22.308Z,3.87
2018-05-24T09:25:23.334Z,4.47
2018-05-24T09:27:24.275Z,3.93
2018-05-24T09:29:26.041Z,4.03
2018-05-24T09:31:26.961Z,3.90
2018-05-24T09:33:27.889Z,4.23
2018-05-24T09:35:28.829Z,3.70
2018-05-24T09:37:29.781Z,4.20
2018-05-24T09:39:30.733Z,4.00
2018-05-24T09:41:31.669Z,3.93
2018-05-24T09:43:32.676Z,4.20
2018-05-24T09:45:33.601Z,4.97
2018-05-24T09:47:34.525Z,4.23
2018-05-24T09:49:35.481Z,3.93
2018-05-24T09:51:37.155Z,4.40
2018-05-24T09:53:38.856Z,4.80
2018-05-24T09:55:39.781Z,3.50
2018-05-24T09:57:40.704Z,4.77
2018-05-24T09:59:42.380Z,4.20
2018-05-24T10:01:43.325Z,3.40
2018-05-24T10:03:44.272Z,4.57
2018-05-24T10:05:45.214Z,4.57
2018-05-24T10:07:46.162Z,4.30
2018-05-24T10:09:47.092Z,5.33
2018-05-24T10:11:48.767Z,3.60
2018-05-24T10:13:50.437Z,4.17
2018-05-24T10:15:51.447Z,4.10
2018-05-24T10:17:52.364Z,4.63
2018-05-24T10:19:53.301Z,4.17
2018-05-24T10:21:54.236Z,3.47
2018-05-24T10:23:55.161Z,3.50
2018-05-24T10:25:56.101Z,3.60
2018-05-24T10:27:57.051Z,3.73
2018-05-24T10:29:58.004Z,3.17
2018-05-24T10:31:58.997Z,3.50
2018-05-24T10:33:59.937Z,3.63
2018-05-24T10:36:01.059Z,3.53
2018-05-24T10:38:02.737Z,3.27
2018-05-24T10:40:03.665Z,4.07
2018-05-24T10:42:04.610Z,3.60
2018-05-24T10:44:05.545Z,3.13
2018-05-24T10:46:06.509Z,4.40
2018-05-24T10:48:07.445Z,3.60
2018-05-24T10:50:08.380Z,3.30
2018-05-24T10:52:09.325Z,3.80
2018-05-24T10:54:10.326Z,3.60
2018-05-24T10:56:11.257Z,3.60
2018-05-24T10:58:12.165Z,3.47
2018-05-24T11:00:13.126Z,3.63
2018-05-24T11:02:14.106Z,3.80
2018-05-24T11:04:15.083Z,3.67
2018-05-24T11:06:16.828Z,4.27
2018-05-24T11:08:17.732Z,3.80
2018-05-24T11:10:18.700Z,3.37
2018-05-24T11:12:19.642Z,3.40
2018-05-24T11:14:20.591Z,3.43
2018-05-24T11:16:21.566Z,3.80
2018-05-24T11:18:22.496Z,4.00
2018-05-24T11:20:23.452Z,4.10
2018-05-24T11:22:24.384Z,4.37
2018-05-24T11:24:25.313Z,3.97
2018-05-24T11:26:26.259Z,3.60
2018-05-24T11:28:27.189Z,4.40
2018-05-24T11:30:28.145Z,4.30
2018-05-24T11:32:29.090Z,4.60
2018-05-24T11:34:30.043Z,4.20
2018-05-24T11:36:30.977Z,3.80
2018-05-24T11:38:31.890Z,4.50
2018-05-24T11:40:32.853Z,4.47
2018-05-24T11:42:33.845Z,4.40
2018-05-24T11:44:34.800Z,3.90
2018-05-24T11:46:35.744Z,4.30
2018-05-24T11:48:36.678Z,4.77
2018-05-24T11:50:37.630Z,4.00
2018-05-24T11:52:38.572Z,4.20
2018-05-24T11:54:39.534Z,4.60
2018-05-24T11:56:41.208Z,4.20
2018-05-24T11:58:42.136Z,4.30
2018-05-24T12:00:43.072Z,4.43
2018-05-24T12:02:44.035Z,4.50
2018-05-24T12:04:45.723Z,4.03
2018-05-24T12:06:46.723Z,4.00
2018-05-24T12:08:47.683Z,4.87
2018-05-24T12:10:48.680Z,4.57
2018-05-24T12:12:49.649Z,5.00
2018-05-24T12:14:50.628Z,5.00
2018-05-24T12:16:52.329Z,4.83
2018-05-24T12:18:53.274Z,4.97
2018-05-24T12:20:54.250Z,4.60
2018-05-24T12:22:55.209Z,5.07
2018-05-24T12:24:56.872Z,5.10
2018-05-24T12:26:57.846Z,4.77
2018-05-24T12:28:59.549Z,5.07
2018-05-24T12:31:00.485Z,4.30
2018-05-24T12:33:01.418Z,4.90
2018-05-24T12:35:02.381Z,5.17
2018-05-24T12:37:03.342Z,4.10
2018-05-24T12:39:04.313Z,4.67
2018-05-24T12:41:05.273Z,4.93
2018-05-24T12:43:06.944Z,6.97
2018-05-24T12:45:08.647Z,4.83
2018-05-24T12:47:09.623Z,5.10
2018-05-24T12:49:10.564Z,5.13
2018-05-24T12:51:11.521Z,4.60
2018-05-24T12:53:12.443Z,5.20
2018-05-24T12:55:13.389Z,4.93
2018-05-24T12:57:15.288Z,5.17
2018-05-24T12:59:16.215Z,5.70
2018-05-24T13:01:17.167Z,5.00
2018-05-24T13:03:18.161Z,5.00
2018-05-24T13:05:19.089Z,6.03
2018-05-24T13:07:20.768Z,5.83
2018-05-24T13:09:22.470Z,4.40
2018-05-24T13:11:23.431Z,4.80
2018-05-24T13:13:24.394Z,4.50
2018-05-24T13:15:25.425Z,5.10
2018-05-24T13:17:26.431Z,5.07
2018-05-24T13:19:27.368Z,4.80
2018-05-24T13:21:28.297Z,5.30
2018-05-24T13:23:29.970Z,5.33
2018-05-24T13:25:30.903Z,4.40
2018-05-24T13:27:32.585Z,4.97
2018-05-24T13:29:33.540Z,6.87
2018-05-24T13:31:34.499Z,5.83
2018-05-24T13:33:35.444Z,5.90
2018-05-24T13:35:36.377Z,5.50
2018-05-24T13:37:38.055Z,4.50
2018-05-24T13:39:38.998Z,5.90
2018-05-24T13:41:39.931Z,5.40
2018-05-24T13:43:40.898Z,5.20
2018-05-24T13:45:41.836Z,6.93
2018-05-24T13:47:42.796Z,6.60
2018-05-24T13:49:43.735Z,6.17
2018-05-24T13:51:44.702Z,6.60
2018-05-24T13:53:45.648Z,6.07
2018-05-24T13:55:46.573Z,8.80
2018-05-24T13:57:47.508Z,8.00
2018-05-24T13:59:48.470Z,8.80
2018-05-24T14:01:49.450Z,8.10
2018-05-24T14:03:50.381Z,8.23
2018-05-24T14:05:51.338Z,7.80
2018-05-24T14:07:53.041Z,7.63
2018-05-24T14:09:53.973Z,7.87
2018-05-24T14:11:54.944Z,7.40
2018-05-24T14:13:55.873Z,7.30
2018-05-24T14:15:56.865Z,7.93
2018-05-24T14:17:57.824Z,8.07
2018-05-24T14:19:58.753Z,8.27
2018-05-24T14:21:59.700Z,7.37
2018-05-24T14:24:00.624Z,6.23
2018-05-24T14:26:01.557Z,5.47
2018-05-24T14:28:02.505Z,5.73
2018-05-24T14:30:03.432Z,7.07
2018-05-24T14:32:04.408Z,6.00
2018-05-24T14:34:05.332Z,7.78
2018-05-24T14:36:06.316Z,7.37
2018-05-24T14:38:07.236Z,6.90
2018-05-24T14:40:08.171Z,6.90
2018-05-24T14:42:09.101Z,7.70
2018-05-24T14:44:10.049Z,6.00
2018-05-24T14:46:11.016Z,6.00
2018-05-24T14:48:11.953Z,7.17
2018-05-24T14:50:12.912Z,6.60
2018-05-24T14:52:13.844Z,7.27
2018-05-24T14:54:14.769Z,7.00
2018-05-24T14:56:15.720Z,8.30
2018-05-24T14:58:16.658Z,7.83
2018-05-24T15:00:18.340Z,7.70
2018-05-24T15:02:19.282Z,7.67
2018-05-24T15:04:20.204Z,6.70
2018-05-24T15:06:21.868Z,7.17
2018-05-24T15:08:23.587Z,6.67
2018-05-24T15:10:24.494Z,6.33
2018-05-24T15:12:25.449Z,6.27
2018-05-24T15:14:26.366Z,5.50
2018-05-24T15:16:28.051Z,5.13
2018-05-24T15:18:29.000Z,5.40
2018-05-24T15:20:29.980Z,4.87
2018-05-24T15:22:30.930Z,5.30
2018-05-24T15:24:31.862Z,4.27
2018-05-24T15:26:32.781Z,4.53
2018-05-24T15:28:33.712Z,4.80
2018-05-24T15:30:35.415Z,4.10
2018-05-24T15:32:36.381Z,4.40
2018-05-24T15:34:37.350Z,4.83
2018-05-24T15:36:39.020Z,5.13
2018-05-24T15:38:40.716Z,4.90
2018-05-24T15:40:41.683Z,4.60
2018-05-24T15:42:42.641Z,5.73
2018-05-24T15:44:43.584Z,5.17
2018-05-24T15:46:44.537Z,4.60
2018-05-24T15:48:45.471Z,4.60
2018-05-24T15:50:46.424Z,5.57
2018-05-24T15:52:47.420Z,5.47
2018-05-24T15:54:49.112Z,7.00
2018-05-24T15:56:50.143Z,7.63
2018-05-24T15:58:51.107Z,8.93
2018-05-24T16:00:52.057Z,8.95
2018-05-24T16:02:53.061Z,9.50
2018-05-24T16:04:54.740Z,8.33
2018-05-24T16:06:56.453Z,8.60
2018-05-24T16:08:57.405Z,8.93
2018-05-24T16:10:58.365Z,8.47
2018-05-24T16:12:59.328Z,8.50
2018-05-24T16:15:01.016Z,8.37
2018-05-24T16:17:01.968Z,8.70
2018-05-24T16:19:02.911Z,9.03
2018-05-24T16:21:03.881Z,8.63
2018-05-24T16:23:04.830Z,10.13
2018-05-24T16:25:05.769Z,9.60
2018-05-24T16:27:06.696Z,9.40
2018-05-24T16:29:07.685Z,10.63
2018-05-24T16:31:08.653Z,9.20
2018-05-24T16:33:10.327Z,9.70
2018-05-24T16:35:12.006Z,10.07
2018-05-24T16:37:12.938Z,9.60
2018-05-24T16:39:14.653Z,10.67
2018-05-24T16:41:15.619Z,9.17
2018-05-24T16:43:16.584Z,8.90
2018-05-24T16:45:18.273Z,8.77
2018-05-24T16:47:19.252Z,9.73
2018-05-24T16:49:20.249Z,10.13
2018-05-24T16:51:21.185Z,9.87
2018-05-24T16:53:22.870Z,10.53
2018-05-24T16:55:23.808Z,10.77
2018-05-24T16:57:24.793Z,10.50
2018-05-24T16:59:25.720Z,10.47
2018-05-24T17:01:26.664Z,11.13
2018-05-24T17:03:27.606Z,11.63
2018-05-24T17:05:28.556Z,11.60
2018-05-24T17:07:29.496Z,12.27
2018-05-24T17:09:30.428Z,10.80
2018-05-24T17:11:31.386Z,12.27
2018-05-24T17:13:33.083Z,11.73
2018-05-24T17:15:34.021Z,12.57
2018-05-24T17:17:34.966Z,12.03
2018-05-24T17:19:35.905Z,12.17
2018-05-24T17:21:36.873Z,12.13
2018-05-24T17:23:37.828Z,11.90
2018-05-24T17:25:38.793Z,11.70
2018-05-24T17:27:40.497Z,11.33
2018-05-24T17:29:41.424Z,12.43
2018-05-24T17:31:42.384Z,12.80
2018-05-24T17:33:43.320Z,12.67
2018-05-24T17:35:44.313Z,12.53
2018-05-24T17:37:45.320Z,12.90
2018-05-24T17:39:46.245Z,13.87
2018-05-24T17:41:47.204Z,12.27
2018-05-24T17:43:48.145Z,13.30
2018-05-24T17:45:49.084Z,12.57
2018-05-24T17:47:50.060Z,13.40
2018-05-24T17:49:51.000Z,15.27
2018-05-24T17:51:51.954Z,14.20
2018-05-24T17:53:52.888Z,13.73
2018-05-24T17:55:53.846Z,14.53
2018-05-24T17:57:54.804Z,13.53
2018-05-24T17:59:55.740Z,12.53
2018-05-24T18:01:56.690Z,13.50
2018-05-24T18:03:57.636Z,14.00
2018-05-24T18:05:58.584Z,14.47
2018-05-24T18:07:59.529Z,14.93
2018-05-24T18:10:00.508Z,14.13
2018-05-24T18:12:01.451Z,13.70
2018-05-24T18:14:02.392Z,13.97
2018-05-24T18:16:03.343Z,14.60
2018-05-24T18:18:04.290Z,14.40
2018-05-24T18:20:05.261Z,13.87
2018-05-24T18:22:06.327Z,14.23
2018-05-24T18:24:07.271Z,14.70
2018-05-24T18:26:08.255Z,14.33
2018-05-24T18:28:09.192Z,13.73
2018-05-24T18:30:10.170Z,13.27
2018-05-24T18:32:11.105Z,13.93
2018-05-24T18:34:12.065Z,13.70
2018-05-24T18:36:13.760Z,14.17
2018-05-24T18:38:14.734Z,13.70
2018-05-24T18:40:15.809Z,14.90
2018-05-24T18:42:16.776Z,13.50
2018-05-24T18:44:17.758Z,13.20
2018-05-24T18:46:18.723Z,13.77
2018-05-24T18:48:19.677Z,12.60
2018-05-24T18:50:20.621Z,13.10
2018-05-24T18:52:21.612Z,12.70
2018-05-24T18:54:23.301Z,12.73
2018-05-24T18:56:24.998Z,11.63
2018-05-24T18:58:26.129Z,12.57
2018-05-24T19:00:27.143Z,11.97
2018-05-24T19:02:28.075Z,12.83
2018-05-24T19:04:29.039Z,11.73
2018-05-24T19:06:29.973Z,12.03
2018-05-24T19:08:31.667Z,12.50
2018-05-24T19:10:32.591Z,11.77
2018-05-24T19:12:33.540Z,11.60
2018-05-24T19:14:34.520Z,12.30
2018-05-24T19:16:35.464Z,11.30
2018-05-24T19:18:36.417Z,11.23
2018-05-24T19:20:37.357Z,10.90
2018-05-24T19:22:38.321Z,11.57
2018-05-24T19:24:39.253Z,9.97
2018-05-24T19:26:40.885Z,10.63
2018-05-24T19:28:41.822Z,10.83
2018-05-24T19:30:42.774Z,11.30
2018-05-24T19:32:43.747Z,11.70
2018-05-24T19:34:44.735Z,12.23
2018-05-24T19:36:45.657Z,10.80
2018-05-24T19:38:46.596Z,10.70
2018-05-24T19:40:47.699Z,11.13
2018-05-24T19:42:48.645Z,10.87
2018-05-24T19:44:49.581Z,10.80
2018-05-24T19:46:50.594Z,10.80
2018-05-24T19:48:51.559Z,11.37
2018-05-24T19:50:53.325Z,11.13
2018-05-24T19:52:54.293Z,12.07
2018-05-24T19:54:55.281Z,12.17
2018-05-24T19:56:56.245Z,11.50
2018-05-24T19:58:57.197Z,11.43
2018-05-24T20:00:58.153Z,11.50
2018-05-24T20:02:59.888Z,11.30
2018-05-24T20:05:00.793Z,11.30
2018-05-24T20:07:01.745Z,11.23
2018-05-24T20:09:02.700Z,11.30
2018-05-24T20:11:03.646Z,10.47
2018-05-24T20:13:04.712Z,10.47
2018-05-24T20:15:08.613Z,11.37
2018-05-24T20:17:09.551Z,11.47
2018-05-24T20:19:10.529Z,11.90
2018-05-24T20:21:11.502Z,11.53
2018-05-24T20:23:13.186Z,11.57
2018-05-24T20:25:18.795Z,10.30
2018-05-24T20:27:20.897Z,10.80
2018-05-24T20:29:22.586Z,10.13
2018-05-24T20:31:23.509Z,10.30
2018-05-24T20:33:25.232Z,8.90
2018-05-24T20:35:26.170Z,9.37
2018-05-24T20:37:27.193Z,9.97
2018-05-24T20:39:28.148Z,9.43
2018-05-24T20:41:29.097Z,8.90
2018-05-24T20:43:30.061Z,7.62
2018-05-24T20:45:31.197Z,7.43
2018-05-24T20:47:32.239Z,6.30
2018-05-24T20:49:33.270Z,5.50
2018-05-24T20:51:34.273Z,4.60
2018-05-24T20:53:35.233Z,4.47
2018-05-24T20:55:36.176Z,4.27
2018-05-24T20:57:37.849Z,4.50
2018-05-24T20:59:38.837Z,4.50
2018-05-24T21:01:39.781Z,4.40
2018-05-24T21:03:40.784Z,4.20
2018-05-24T21:05:42.556Z,3.87
2018-05-24T21:07:43.553Z,3.97
2018-05-24T21:09:44.503Z,4.10
2018-05-24T21:11:45.434Z,3.53
2018-05-24T21:13:46.439Z,3.90
2018-05-24T21:15:47.357Z,3.47
2018-05-24T21:17:48.337Z,4.50
2018-05-24T21:19:49.348Z,3.67
2018-05-24T21:21:50.305Z,3.00
2018-05-24T21:23:51.281Z,3.23
2018-05-24T21:25:52.230Z,3.90
2018-05-24T21:27:53.211Z,3.63
2018-05-24T21:29:54.156Z,4.17
2018-05-24T21:31:55.129Z,3.60
2018-05-24T21:33:56.105Z,3.57
2018-05-24T21:35:57.193Z,3.50
2018-05-24T21:37:58.197Z,3.60
2018-05-24T21:39:59.120Z,3.47
2018-05-24T21:42:00.126Z,3.60
2018-05-24T21:44:01.123Z,4.03
2018-05-24T21:46:02.844Z,3.57
2018-05-24T21:48:03.831Z,4.10
2018-05-24T21:50:04.776Z,3.63
2018-05-24T21:52:06.466Z,4.20
2018-05-24T21:54:07.447Z,4.43
2018-05-24T21:56:08.369Z,3.73
2018-05-24T21:58:09.377Z,3.63
2018-05-24T22:00:11.057Z,3.40
2018-05-24T22:02:12.752Z,3.63
2018-05-24T22:04:13.697Z,3.70
2018-05-24T22:06:14.682Z,3.83
2018-05-24T22:08:15.696Z,3.70
2018-05-24T22:10:16.649Z,3.87
2018-05-24T22:12:17.581Z,3.47
2018-05-24T22:14:18.547Z,3.90
2018-05-24T22:16:19.511Z,3.17
2018-05-24T22:18:20.441Z,3.50
2018-05-24T22:20:21.414Z,4.70
2018-05-24T22:22:22.349Z,4.63
2018-05-24T22:24:23.300Z,4.00
2018-05-24T22:26:24.233Z,3.80
2018-05-24T22:28:25.183Z,4.20
2018-05-24T22:30:26.118Z,4.27
2018-05-24T22:32:27.064Z,3.40
2018-05-24T22:34:28.003Z,3.50
2018-05-24T22:36:28.937Z,3.77
2018-05-24T22:38:29.914Z,3.90
2018-05-24T22:40:30.851Z,3.77
2018-05-24T22:42:31.773Z,3.67
2018-05-24T22:44:32.745Z,3.93
2018-05-24T22:46:33.702Z,3.93
2018-05-24T22:48:34.749Z,3.63
2018-05-24T22:50:35.713Z,4.10
2018-05-24T22:52:37.386Z,3.00
2018-05-24T22:54:38.379Z,3.97
2018-05-24T22:56:39.299Z,3.80
2018-05-24T22:58:40.264Z,4.47
2018-05-24T23:00:41.217Z,4.17
2018-05-24T23:02:42.152Z,4.10
2018-05-24T23:04:43.101Z,3.90
2018-05-24T23:06:44.065Z,4.30
2018-05-24T23:08:45.025Z,4.00
2018-05-24T23:10:45.968Z,4.33
2018-05-24T23:12:46.908Z,4.40
2018-05-24T23:14:47.848Z,4.07
2018-05-24T23:16:48.777Z,4.60
2018-05-24T23:18:49.744Z,4.27
2018-05-24T23:20:50.697Z,4.83
2018-05-24T23:22:51.671Z,3.93
2018-05-24T23:24:52.657Z,4.40
2018-05-24T23:26:53.605Z,4.00
2018-05-24T23:28:54.529Z,3.70
2018-05-24T23:30:55.480Z,4.00
2018-05-24T23:32:56.448Z,4.63
2018-05-24T23:34:57.424Z,4.20
2018-05-24T23:36:58.340Z,3.80
2018-05-24T23:38:59.281Z,4.37
2018-05-24T23:41:00.235Z,4.30
2018-05-24T23:43:01.198Z,3.83
2018-05-24T23:45:02.212Z,4.33
2018-05-24T23:47:03.841Z,3.83
2018-05-24T23:49:04.776Z,3.10
2018-05-24T23:51:06.464Z,4.43
2018-05-24T23:53:07.417Z,4.90
2018-05-24T23:55:08.343Z,4.00
2018-05-24T23:57:09.280Z,4.40
2018-05-24T23:59:10.965Z,4.40
